Weather at Ramat David Air Base

Public forecast

Using degrees Celsius for public forecast. Weather courtesy of forecast.io.

Closest aviation weather report (METAR) to Ramat David Air Base

Report is more than 2 hours old.

Closest report is Haifa International Airport, 11.1 nm (20.5 km) NW.

2024/05/20 16:50 (retrieved 6 hours ago)

LLHA 201650Z 24007KT CAVOK 28/14 Q1008

Closest aviation forecast (TAF) to Ramat David Air Base

Closest forecast is Haifa International Airport, 11.1 nm (20.5 km) NW.

2024/05/20 18:00 (retrieved 5 hours ago)

TAF LLHA 201705Z 2018/2118 VRB04KT CAVOK BECMG 2021/2023 9000 SCT015 PROB40 TEMPO 2023/2105 20005KT 7000 BKN012 BECMG 2106/2108 27010KT 9999 FEW018 BECMG 2115/2117 VRB04KT TX29/2110Z TN20/2103Z